sensor_id;sensor_type;location;lat;lon;timestamp;pressure;altitude;pressure_sealevel;temperature;humidity
74790;BME280;63318;52.406;13.416;2022-11-03T00:00:45;101784.48;;;5.23;76.74
74790;BME280;63318;52.406;13.416;2022-11-03T00:03:13;101779.78;;;5.16;76.86
74790;BME280;63318;52.406;13.416;2022-11-03T00:05:41;101777.92;;;5.08;76.84
74790;BME280;63318;52.406;13.416;2022-11-03T00:08:09;101783.23;;;5.02;76.99
74790;BME280;63318;52.406;13.416;2022-11-03T00:10:37;101783.86;;;4.94;77.19
74790;BME280;63318;52.406;13.416;2022-11-03T00:13:05;101777.89;;;4.88;77.16
74790;BME280;63318;52.406;13.416;2022-11-03T00:15:33;101778.48;;;4.87;77.14
74790;BME280;63318;52.406;13.416;2022-11-03T00:18:02;101773.86;;;4.95;76.86
74790;BME280;63318;52.406;13.416;2022-11-03T00:20:30;101780.05;;;4.94;76.73
74790;BME280;63318;52.406;13.416;2022-11-03T00:22:58;101779.87;;;4.92;76.83
74790;BME280;63318;52.406;13.416;2022-11-03T00:25:26;101779.02;;;4.92;77.03
74790;BME280;63318;52.406;13.416;2022-11-03T00:27:57;101776.53;;;4.93;77.30
74790;BME280;63318;52.406;13.416;2022-11-03T00:30:26;101777.64;;;4.94;77.56
74790;BME280;63318;52.406;13.416;2022-11-03T00:32:54;101776.48;;;4.99;77.77
74790;BME280;63318;52.406;13.416;2022-11-03T00:35:22;101778.65;;;4.98;77.81
74790;BME280;63318;52.406;13.416;2022-11-03T00:37:50;101774.92;;;4.99;78.06
74790;BME280;63318;52.406;13.416;2022-11-03T00:40:19;101771.40;;;5.01;78.01
74790;BME280;63318;52.406;13.416;2022-11-03T00:42:47;101766.11;;;5.01;77.82
74790;BME280;63318;52.406;13.416;2022-11-03T00:45:15;101764.97;;;4.98;77.74
74790;BME280;63318;52.406;13.416;2022-11-03T00:47:43;101764.04;;;4.94;77.64
74790;BME280;63318;52.406;13.416;2022-11-03T00:50:12;101762.13;;;4.92;77.59
74790;BME280;63318;52.406;13.416;2022-11-03T00:52:40;101751.92;;;4.90;77.80
74790;BME280;63318;52.406;13.416;2022-11-03T00:55:08;101750.48;;;4.86;77.79
74790;BME280;63318;52.406;13.416;2022-11-03T00:57:37;101741.52;;;4.82;77.73
74790;BME280;63318;52.406;13.416;2022-11-03T01:00:07;101740.88;;;4.79;77.76
74790;BME280;63318;52.406;13.416;2022-11-03T01:02:35;101746.21;;;4.76;77.82
74790;BME280;63318;52.406;13.416;2022-11-03T01:05:04;101749.27;;;4.72;77.99
74790;BME280;63318;52.406;13.416;2022-11-03T01:07:32;101746.27;;;4.67;78.25
74790;BME280;63318;52.406;13.416;2022-11-03T01:10:00;101743.23;;;4.65;78.26
74790;BME280;63318;52.406;13.416;2022-11-03T01:12:29;101742.36;;;4.72;77.81
74790;BME280;63318;52.406;13.416;2022-11-03T01:14:57;101744.48;;;4.73;77.72
74790;BME280;63318;52.406;13.416;2022-11-03T01:17:26;101743.37;;;4.73;77.88
74790;BME280;63318;52.406;13.416;2022-11-03T01:19:55;101742.86;;;4.75;78.03
74790;BME280;63318;52.406;13.416;2022-11-03T01:22:24;101738.25;;;4.79;78.17
74790;BME280;63318;52.406;13.416;2022-11-03T01:24:52;101735.48;;;4.83;78.39
74790;BME280;63318;52.406;13.416;2022-11-03T01:27:21;101730.63;;;4.88;78.59
74790;BME280;63318;52.406;13.416;2022-11-03T01:29:49;101729.17;;;4.94;78.66
74790;BME280;63318;52.406;13.416;2022-11-03T01:32:17;101729.08;;;4.99;78.99
74790;BME280;63318;52.406;13.416;2022-11-03T01:34:45;101727.42;;;5.00;78.96
74790;BME280;63318;52.406;13.416;2022-11-03T01:37:13;101732.27;;;5.03;78.92
74790;BME280;63318;52.406;13.416;2022-11-03T01:39:42;101735.06;;;5.03;78.95
74790;BME280;63318;52.406;13.416;2022-11-03T01:42:11;101737.00;;;5.05;78.74
74790;BME280;63318;52.406;13.416;2022-11-03T01:44:42;101735.73;;;5.05;79.01
74790;BME280;63318;52.406;13.416;2022-11-03T01:47:18;101727.90;;;5.02;78.78
74790;BME280;63318;52.406;13.416;2022-11-03T01:49:51;101730.95;;;4.99;78.75
74790;BME280;63318;52.406;13.416;2022-11-03T01:52:27;101727.95;;;4.95;78.97
74790;BME280;63318;52.406;13.416;2022-11-03T01:55:01;101728.88;;;4.92;78.88
74790;BME280;63318;52.406;13.416;2022-11-03T01:57:36;101730.84;;;4.89;78.96
74790;BME280;63318;52.406;13.416;2022-11-03T02:00:09;101732.23;;;4.84;79.10
74790;BME280;63318;52.406;13.416;2022-11-03T02:02:38;101738.25;;;4.78;79.22
74790;BME280;63318;52.406;13.416;2022-11-03T02:05:08;101738.29;;;4.72;79.16
74790;BME280;63318;52.406;13.416;2022-11-03T02:07:40;101733.69;;;4.70;79.05
74790;BME280;63318;52.406;13.416;2022-11-03T02:10:11;101726.52;;;4.78;78.69
74790;BME280;63318;52.406;13.416;2022-11-03T02:12:39;101721.31;;;4.77;78.63
74790;BME280;63318;52.406;13.416;2022-11-03T02:15:10;101721.02;;;4.75;78.76
74790;BME280;63318;52.406;13.416;2022-11-03T02:17:40;101723.80;;;4.76;78.83
74790;BME280;63318;52.406;13.416;2022-11-03T02:20:12;101718.44;;;4.79;79.05
74790;BME280;63318;52.406;13.416;2022-11-03T02:23:00;101717.20;;;4.83;79.27
74790;BME280;63318;52.406;13.416;2022-11-03T02:25:38;101708.89;;;4.90;79.41
74790;BME280;63318;52.406;13.416;2022-11-03T02:28:07;101700.55;;;4.96;79.41
74790;BME280;63318;52.406;13.416;2022-11-03T02:30:41;101699.48;;;4.94;79.38
74790;BME280;63318;52.406;13.416;2022-11-03T02:33:23;101693.30;;;4.93;79.40
74790;BME280;63318;52.406;13.416;2022-11-03T02:35:55;101689.91;;;4.91;79.37
74790;BME280;63318;52.406;13.416;2022-11-03T02:38:27;101686.71;;;4.89;79.49
74790;BME280;63318;52.406;13.416;2022-11-03T02:41:00;101690.31;;;4.85;79.32
74790;BME280;63318;52.406;13.416;2022-11-03T02:43:30;101696.41;;;4.81;79.39
74790;BME280;63318;52.406;13.416;2022-11-03T02:45:59;101693.33;;;4.75;79.47
74790;BME280;63318;52.406;13.416;2022-11-03T02:48:28;101685.76;;;4.69;79.59
74790;BME280;63318;52.406;13.416;2022-11-03T02:50:57;101682.23;;;4.63;79.43
74790;BME280;63318;52.406;13.416;2022-11-03T02:53:27;101680.52;;;4.57;79.46
74790;BME280;63318;52.406;13.416;2022-11-03T02:56:01;101685.38;;;4.51;79.48
74790;BME280;63318;52.406;13.416;2022-11-03T02:58:36;101680.88;;;4.44;79.59
74790;BME280;63318;52.406;13.416;2022-11-03T03:01:11;101676.40;;;4.39;79.67
74790;BME280;63318;52.406;13.416;2022-11-03T03:03:45;101673.27;;;4.34;79.79
74790;BME280;63318;52.406;13.416;2022-11-03T03:06:17;101667.26;;;4.32;79.81
74790;BME280;63318;52.406;13.416;2022-11-03T03:08:48;101663.95;;;4.40;79.43
74790;BME280;63318;52.406;13.416;2022-11-03T03:11:18;101660.61;;;4.42;79.21
74790;BME280;63318;52.406;13.416;2022-11-03T03:13:47;101658.23;;;4.42;79.35
74790;BME280;63318;52.406;13.416;2022-11-03T03:16:18;101655.59;;;4.44;79.63
74790;BME280;63318;52.406;13.416;2022-11-03T03:18:59;101654.15;;;4.47;79.68
74790;BME280;63318;52.406;13.416;2022-11-03T03:21:32;101652.40;;;4.52;79.88
74790;BME280;63318;52.406;13.416;2022-11-03T03:24:07;101653.67;;;4.55;80.03
74790;BME280;63318;52.406;13.416;2022-11-03T03:26:40;101657.05;;;4.51;80.20
74790;BME280;63318;52.406;13.416;2022-11-03T03:29:13;101654.94;;;4.53;80.28
74790;BME280;63318;52.406;13.416;2022-11-03T03:31:45;101654.27;;;4.54;80.31
74790;BME280;63318;52.406;13.416;2022-11-03T03:34:14;101657.95;;;4.53;80.14
74790;BME280;63318;52.406;13.416;2022-11-03T03:36:45;101661.55;;;4.50;80.24
74790;BME280;63318;52.406;13.416;2022-11-03T03:39:15;101652.61;;;4.46;80.11
74790;BME280;63318;52.406;13.416;2022-11-03T03:41:46;101649.23;;;4.43;80.06
74790;BME280;63318;52.406;13.416;2022-11-03T03:44:15;101644.48;;;4.40;80.03
74790;BME280;63318;52.406;13.416;2022-11-03T03:46:48;101642.17;;;4.37;80.07
74790;BME280;63318;52.406;13.416;2022-11-03T03:49:19;101636.84;;;4.32;80.09
74790;BME280;63318;52.406;13.416;2022-11-03T03:51:48;101636.73;;;4.29;80.14
74790;BME280;63318;52.406;13.416;2022-11-03T03:54:17;101638.65;;;4.24;80.24
74790;BME280;63318;52.406;13.416;2022-11-03T03:56:49;101640.59;;;4.21;80.48
74790;BME280;63318;52.406;13.416;2022-11-03T03:59:21;101642.66;;;4.18;80.47
74790;BME280;63318;52.406;13.416;2022-11-03T04:01:49;101641.81;;;4.19;80.48
74790;BME280;63318;52.406;13.416;2022-11-03T04:04:18;101638.86;;;4.30;80.03
74790;BME280;63318;52.406;13.416;2022-11-03T04:06:46;101638.23;;;4.31;79.92
74790;BME280;63318;52.406;13.416;2022-11-03T04:09:14;101636.96;;;4.31;79.99
74790;BME280;63318;52.406;13.416;2022-11-03T04:11:42;101630.83;;;4.33;80.15
74790;BME280;63318;52.406;13.416;2022-11-03T04:14:11;101632.39;;;4.39;80.30
74790;BME280;63318;52.406;13.416;2022-11-03T04:16:39;101633.65;;;4.44;80.59
74790;BME280;63318;52.406;13.416;2022-11-03T04:19:09;101634.42;;;4.51;80.39
74790;BME280;63318;52.406;13.416;2022-11-03T04:21:37;101636.06;;;4.52;80.54
74790;BME280;63318;52.406;13.416;2022-11-03T04:24:06;101631.91;;;4.50;80.64
74790;BME280;63318;52.406;13.416;2022-11-03T04:26:34;101636.66;;;4.52;80.63
74790;BME280;63318;52.406;13.416;2022-11-03T04:29:05;101639.20;;;4.54;80.61
74790;BME280;63318;52.406;13.416;2022-11-03T04:31:35;101633.02;;;4.57;80.48
74790;BME280;63318;52.406;13.416;2022-11-03T04:34:10;101630.30;;;4.58;80.28
74790;BME280;63318;52.406;13.416;2022-11-03T04:36:39;101627.98;;;4.56;80.07
74790;BME280;63318;52.406;13.416;2022-11-03T04:39:15;101617.15;;;4.52;79.89
74790;BME280;63318;52.406;13.416;2022-11-03T04:41:43;101611.77;;;4.47;79.80
74790;BME280;63318;52.406;13.416;2022-11-03T04:44:14;101612.33;;;4.41;79.68
74790;BME280;63318;52.406;13.416;2022-11-03T04:46:44;101608.35;;;4.32;79.86
74790;BME280;63318;52.406;13.416;2022-11-03T04:49:22;101611.95;;;4.25;79.78
74790;BME280;63318;52.406;13.416;2022-11-03T04:51:50;101604.39;;;4.19;79.95
74790;BME280;63318;52.406;13.416;2022-11-03T04:54:22;101605.40;;;4.13;79.99
74790;BME280;63318;52.406;13.416;2022-11-03T04:56:50;101605.64;;;4.07;79.94
74790;BME280;63318;52.406;13.416;2022-11-03T04:59:18;101600.15;;;4.05;80.13
74790;BME280;63318;52.406;13.416;2022-11-03T05:01:47;101600.91;;;4.13;79.78
74790;BME280;63318;52.406;13.416;2022-11-03T05:04:16;101597.27;;;4.14;79.79
74790;BME280;63318;52.406;13.416;2022-11-03T05:06:48;101596.98;;;4.15;79.88
74790;BME280;63318;52.406;13.416;2022-11-03T05:09:22;101589.70;;;4.17;80.18
74790;BME280;63318;52.406;13.416;2022-11-03T05:11:51;101589.41;;;4.22;80.32
74790;BME280;63318;52.406;13.416;2022-11-03T05:14:21;101585.55;;;4.29;80.63
74790;BME280;63318;52.406;13.416;2022-11-03T05:16:51;101583.56;;;4.37;80.68
74790;BME280;63318;52.406;13.416;2022-11-03T05:19:21;101581.48;;;4.46;80.83
74790;BME280;63318;52.406;13.416;2022-11-03T05:21:51;101576.68;;;4.52;80.81
74790;BME280;63318;52.406;13.416;2022-11-03T05:24:22;101580.33;;;4.53;80.99
74790;BME280;63318;52.406;13.416;2022-11-03T05:26:51;101575.20;;;4.54;81.04
74790;BME280;63318;52.406;13.416;2022-11-03T05:29:21;101568.90;;;4.55;80.94
74790;BME280;63318;52.406;13.416;2022-11-03T05:31:52;101564.02;;;4.54;80.81
74790;BME280;63318;52.406;13.416;2022-11-03T05:34:36;101561.27;;;4.53;80.70
74790;BME280;63318;52.406;13.416;2022-11-03T05:37:18;101550.84;;;4.49;80.67
74790;BME280;63318;52.406;13.416;2022-11-03T05:39:50;101550.45;;;4.44;80.64
74790;BME280;63318;52.406;13.416;2022-11-03T05:42:27;101550.67;;;4.39;80.68
74790;BME280;63318;52.406;13.416;2022-11-03T05:44:55;101548.73;;;4.33;80.71
74790;BME280;63318;52.406;13.416;2022-11-03T05:47:26;101550.07;;;4.27;80.67
74790;BME280;63318;52.406;13.416;2022-11-03T05:49:58;101551.20;;;4.21;80.63
74790;BME280;63318;52.406;13.416;2022-11-03T05:52:28;101549.52;;;4.17;80.62
74790;BME280;63318;52.406;13.416;2022-11-03T05:54:58;101544.87;;;4.11;80.79
74790;BME280;63318;52.406;13.416;2022-11-03T05:57:28;101549.73;;;4.07;80.75
74790;BME280;63318;52.406;13.416;2022-11-03T05:59:57;101546.27;;;4.12;80.47
74790;BME280;63318;52.406;13.416;2022-11-03T06:02:34;101548.94;;;4.13;80.41
74790;BME280;63318;52.406;13.416;2022-11-03T06:05:04;101549.31;;;4.13;80.46
74790;BME280;63318;52.406;13.416;2022-11-03T06:07:38;101551.27;;;4.15;80.77
74790;BME280;63318;52.406;13.416;2022-11-03T06:10:22;101549.64;;;4.18;80.90
74790;BME280;63318;52.406;13.416;2022-11-03T06:12:58;101542.33;;;4.23;81.19
74790;BME280;63318;52.406;13.416;2022-11-03T06:15:30;101542.44;;;4.31;81.07
74790;BME280;63318;52.406;13.416;2022-11-03T06:17:59;101545.98;;;4.37;81.22
74790;BME280;63318;52.406;13.416;2022-11-03T06:20:28;101546.11;;;4.42;81.47
74790;BME280;63318;52.406;13.416;2022-11-03T06:22:57;101545.48;;;4.44;81.56
74790;BME280;63318;52.406;13.416;2022-11-03T06:25:28;101547.69;;;4.49;81.56
74790;BME280;63318;52.406;13.416;2022-11-03T06:28:02;101550.64;;;4.53;81.60
74790;BME280;63318;52.406;13.416;2022-11-03T06:30:33;101555.80;;;4.54;81.38
74790;BME280;63318;52.406;13.416;2022-11-03T06:33:09;101555.30;;;4.54;81.35
74790;BME280;63318;52.406;13.416;2022-11-03T06:35:40;101554.05;;;4.51;81.28
74790;BME280;63318;52.406;13.416;2022-11-03T06:38:14;101557.52;;;4.48;81.14
74790;BME280;63318;52.406;13.416;2022-11-03T06:40:43;101552.25;;;4.44;81.06
74790;BME280;63318;52.406;13.416;2022-11-03T06:43:15;101546.27;;;4.40;81.11
74790;BME280;63318;52.406;13.416;2022-11-03T06:45:50;101548.48;;;4.35;81.26
74790;BME280;63318;52.406;13.416;2022-11-03T06:48:26;101550.98;;;4.30;81.13
74790;BME280;63318;52.406;13.416;2022-11-03T06:50:55;101548.88;;;4.25;81.15
74790;BME280;63318;52.406;13.416;2022-11-03T06:53:30;101549.01;;;4.20;81.07
74790;BME280;63318;52.406;13.416;2022-11-03T06:55:59;101551.64;;;4.18;81.23
74790;BME280;63318;52.406;13.416;2022-11-03T06:58:29;101540.41;;;4.28;80.85
74790;BME280;63318;52.406;13.416;2022-11-03T07:01:00;101534.20;;;4.30;80.76
74790;BME280;63318;52.406;13.416;2022-11-03T07:03:31;101534.79;;;4.29;80.94
74790;BME280;63318;52.406;13.416;2022-11-03T07:06:03;101527.77;;;4.32;81.12
74790;BME280;63318;52.406;13.416;2022-11-03T07:08:40;101524.91;;;4.38;81.19
74790;BME280;63318;52.406;13.416;2022-11-03T07:11:15;101524.40;;;4.43;81.42
74790;BME280;63318;52.406;13.416;2022-11-03T07:13:45;101521.63;;;4.49;81.43
74790;BME280;63318;52.406;13.416;2022-11-03T07:16:19;101520.45;;;4.58;81.64
74790;BME280;63318;52.406;13.416;2022-11-03T07:18:49;101520.06;;;4.63;81.73
74790;BME280;63318;52.406;13.416;2022-11-03T07:21:27;101522.80;;;4.67;81.83
74790;BME280;63318;52.406;13.416;2022-11-03T07:23:59;101524.98;;;4.75;81.80
74790;BME280;63318;52.406;13.416;2022-11-03T07:26:28;101524.02;;;4.81;81.84
74790;BME280;63318;52.406;13.416;2022-11-03T07:28:57;101527.48;;;4.85;81.74
74790;BME280;63318;52.406;13.416;2022-11-03T07:31:26;101525.80;;;4.90;81.85
74790;BME280;63318;52.406;13.416;2022-11-03T07:33:58;101524.11;;;4.95;81.87
74790;BME280;63318;52.406;13.416;2022-11-03T07:36:27;101521.37;;;5.00;81.88
74790;BME280;63318;52.406;13.416;2022-11-03T07:39:00;101519.21;;;5.05;82.08
74790;BME280;63318;52.406;13.416;2022-11-03T07:41:30;101518.48;;;5.08;82.04
74790;BME280;63318;52.406;13.416;2022-11-03T07:44:01;101520.17;;;5.12;82.25
74790;BME280;63318;52.406;13.416;2022-11-03T07:46:29;101518.70;;;5.17;82.20
74790;BME280;63318;52.406;13.416;2022-11-03T07:48:58;101516.09;;;5.21;82.33
74790;BME280;63318;52.406;13.416;2022-11-03T07:51:31;101517.78;;;5.31;82.25
74790;BME280;63318;52.406;13.416;2022-11-03T07:54:08;101515.75;;;5.49;82.05
74790;BME280;63318;52.406;13.416;2022-11-03T07:56:40;101511.48;;;5.61;81.99
74790;BME280;63318;52.406;13.416;2022-11-03T07:59:17;101505.40;;;5.73;81.95
74790;BME280;63318;52.406;13.416;2022-11-03T08:01:48;101495.61;;;5.84;82.22
74790;BME280;63318;52.406;13.416;2022-11-03T08:04:20;101493.90;;;5.98;82.31
74790;BME280;63318;52.406;13.416;2022-11-03T08:06:50;101488.29;;;6.13;82.46
74790;BME280;63318;52.406;13.416;2022-11-03T08:09:19;101490.11;;;6.30;82.28
74790;BME280;63318;52.406;13.416;2022-11-03T08:11:47;101491.63;;;6.48;82.44
74790;BME280;63318;52.406;13.416;2022-11-03T08:14:15;101487.54;;;6.64;82.44
74790;BME280;63318;52.406;13.416;2022-11-03T08:16:44;101481.28;;;6.74;82.31
74790;BME280;63318;52.406;13.416;2022-11-03T08:19:12;101480.38;;;6.86;82.22
74790;BME280;63318;52.406;13.416;2022-11-03T08:21:40;101474.77;;;6.96;82.31
74790;BME280;63318;52.406;13.416;2022-11-03T08:24:09;101471.34;;;7.08;82.05
74790;BME280;63318;52.406;13.416;2022-11-03T08:26:37;101461.44;;;7.20;81.95
74790;BME280;63318;52.406;13.416;2022-11-03T08:29:05;101461.60;;;7.31;81.80
74790;BME280;63318;52.406;13.416;2022-11-03T08:31:33;101456.66;;;7.43;81.58
74790;BME280;63318;52.406;13.416;2022-11-03T08:34:02;101454.15;;;7.54;81.28
74790;BME280;63318;52.406;13.416;2022-11-03T08:36:30;101453.17;;;7.64;80.97
74790;BME280;63318;52.406;13.416;2022-11-03T08:38:58;101447.70;;;7.73;80.79
74790;BME280;63318;52.406;13.416;2022-11-03T08:41:27;101449.07;;;7.83;80.80
74790;BME280;63318;52.406;13.416;2022-11-03T08:43:55;101445.49;;;7.93;80.45
74790;BME280;63318;52.406;13.416;2022-11-03T08:46:23;101438.48;;;8.02;80.39
74790;BME280;63318;52.406;13.416;2022-11-03T08:48:51;101431.85;;;8.12;80.10
74790;BME280;63318;52.406;13.416;2022-11-03T08:51:20;101428.21;;;8.22;79.80
74790;BME280;63318;52.406;13.416;2022-11-03T08:53:48;101427.88;;;8.33;79.82
74790;BME280;63318;52.406;13.416;2022-11-03T08:56:17;101422.30;;;8.47;79.69
74790;BME280;63318;52.406;13.416;2022-11-03T08:58:45;101413.49;;;8.69;79.50
74790;BME280;63318;52.406;13.416;2022-11-03T09:01:13;101411.27;;;8.85;79.12
74790;BME280;63318;52.406;13.416;2022-11-03T09:03:42;101407.14;;;9.00;79.04
74790;BME280;63318;52.406;13.416;2022-11-03T09:06:10;101403.25;;;9.17;78.86
74790;BME280;63318;52.406;13.416;2022-11-03T09:08:39;101397.56;;;9.34;78.98
74790;BME280;63318;52.406;13.416;2022-11-03T09:11:07;101399.77;;;9.52;78.77
74790;BME280;63318;52.406;13.416;2022-11-03T09:13:35;101398.96;;;9.63;78.26
74790;BME280;63318;52.406;13.416;2022-11-03T09:16:04;101396.45;;;9.71;77.89
74790;BME280;63318;52.406;13.416;2022-11-03T09:18:32;101394.23;;;9.82;77.92
74790;BME280;63318;52.406;13.416;2022-11-03T09:21:00;101391.16;;;9.91;77.35
74790;BME280;63318;52.406;13.416;2022-11-03T09:23:29;101388.48;;;10.02;77.14
74790;BME280;63318;52.406;13.416;2022-11-03T09:25:59;101384.70;;;10.11;76.87
74790;BME280;63318;52.406;13.416;2022-11-03T09:28:28;101380.52;;;10.17;76.41
74790;BME280;63318;52.406;13.416;2022-11-03T09:30:56;101378.34;;;10.19;76.02
74790;BME280;63318;52.406;13.416;2022-11-03T09:33:24;101372.58;;;10.20;76.02
74790;BME280;63318;52.406;13.416;2022-11-03T09:35:52;101366.90;;;10.23;75.63
74790;BME280;63318;52.406;13.416;2022-11-03T09:38:21;101360.11;;;10.27;75.54
74790;BME280;63318;52.406;13.416;2022-11-03T09:40:49;101351.27;;;10.29;75.37
74790;BME280;63318;52.406;13.416;2022-11-03T09:43:17;101346.73;;;10.30;75.09
74790;BME280;63318;52.406;13.416;2022-11-03T09:45:46;101338.57;;;10.31;74.75
74790;BME280;63318;52.406;13.416;2022-11-03T09:48:15;101335.47;;;10.32;75.03
74790;BME280;63318;52.406;13.416;2022-11-03T09:50:43;101334.13;;;10.35;75.06
74790;BME280;63318;52.406;13.416;2022-11-03T09:53:13;101331.71;;;10.38;75.02
74790;BME280;63318;52.406;13.416;2022-11-03T09:55:41;101328.85;;;10.43;74.92
74790;BME280;63318;52.406;13.416;2022-11-03T09:58:14;101329.79;;;10.49;74.88
74790;BME280;63318;52.406;13.416;2022-11-03T10:00:44;101323.06;;;10.53;74.85
74790;BME280;63318;52.406;13.416;2022-11-03T10:03:14;101318.41;;;10.59;74.63
74790;BME280;63318;52.406;13.416;2022-11-03T10:05:44;101317.35;;;10.64;74.65
74790;BME280;63318;52.406;13.416;2022-11-03T10:08:22;101311.05;;;10.71;74.07
74790;BME280;63318;52.406;13.416;2022-11-03T10:10:51;101307.17;;;10.88;74.01
74790;BME280;63318;52.406;13.416;2022-11-03T10:13:25;101301.79;;;11.00;74.11
74790;BME280;63318;52.406;13.416;2022-11-03T10:15:56;101302.47;;;11.12;73.99
74790;BME280;63318;52.406;13.416;2022-11-03T10:18:24;101295.23;;;11.25;74.03
74790;BME280;63318;52.406;13.416;2022-11-03T10:20:54;101288.39;;;11.38;74.19
74790;BME280;63318;52.406;13.416;2022-11-03T10:23:23;101285.10;;;11.44;73.65
74790;BME280;63318;52.406;13.416;2022-11-03T10:25:51;101279.98;;;11.53;73.48
74790;BME280;63318;52.406;13.416;2022-11-03T10:28:21;101271.58;;;11.61;73.14
74790;BME280;63318;52.406;13.416;2022-11-03T10:30:51;101270.66;;;11.69;73.10
74790;BME280;63318;52.406;13.416;2022-11-03T10:33:36;101270.88;;;11.76;72.58
74790;BME280;63318;52.406;13.416;2022-11-03T10:36:22;101268.29;;;11.82;72.41
74790;BME280;63318;52.406;13.416;2022-11-03T10:38:51;101265.48;;;11.88;72.37
74790;BME280;63318;52.406;13.416;2022-11-03T10:41:20;101257.84;;;11.93;72.09
74790;BME280;63318;52.406;13.416;2022-11-03T10:44:04;101253.05;;;11.97;72.29
74790;BME280;63318;52.406;13.416;2022-11-03T10:46:33;101250.40;;;11.99;71.96
74790;BME280;63318;52.406;13.416;2022-11-03T10:49:04;101244.79;;;12.00;72.05
74790;BME280;63318;52.406;13.416;2022-11-03T10:51:34;101242.79;;;12.00;71.69
74790;BME280;63318;52.406;13.416;2022-11-03T10:54:04;101238.77;;;12.01;71.53
74790;BME280;63318;52.406;13.416;2022-11-03T10:56:33;101233.20;;;12.01;71.49
74790;BME280;63318;52.406;13.416;2022-11-03T10:59:02;101227.63;;;12.02;71.78
74790;BME280;63318;52.406;13.416;2022-11-03T11:01:31;101225.52;;;12.01;71.44
74790;BME280;63318;52.406;13.416;2022-11-03T11:04:00;101220.12;;;12.01;71.59
74790;BME280;63318;52.406;13.416;2022-11-03T11:06:31;101219.11;;;12.02;71.38
74790;BME280;63318;52.406;13.416;2022-11-03T11:09:03;101216.67;;;12.04;71.36
74790;BME280;63318;52.406;13.416;2022-11-03T11:11:32;101209.23;;;12.05;71.17
74790;BME280;63318;52.406;13.416;2022-11-03T11:14:32;101207.84;;;12.06;71.18
74790;BME280;63318;52.406;13.416;2022-11-03T11:17:02;101204.22;;;12.08;70.66
74790;BME280;63318;52.406;13.416;2022-11-03T11:19:49;101199.50;;;12.10;70.64
74790;BME280;63318;52.406;13.416;2022-11-03T11:22:22;101195.05;;;12.15;70.53
74790;BME280;63318;52.406;13.416;2022-11-03T11:25:06;101189.19;;;12.27;70.54
74790;BME280;63318;52.406;13.416;2022-11-03T11:27:57;101183.78;;;12.31;70.48
74790;BME280;63318;52.406;13.416;2022-11-03T11:33:32;101169.88;;;12.38;71.00
74790;BME280;63318;52.406;13.416;2022-11-03T11:36:21;101164.13;;;12.38;70.70
74790;BME280;63318;52.406;13.416;2022-11-03T11:39:10;101162.47;;;12.41;70.64
74790;BME280;63318;52.406;13.416;2022-11-03T11:42:06;101158.63;;;12.45;70.63
74790;BME280;63318;52.406;13.416;2022-11-03T11:45:01;101152.61;;;12.49;70.30
74790;BME280;63318;52.406;13.416;2022-11-03T11:47:46;101146.15;;;12.49;69.98
74790;BME280;63318;52.406;13.416;2022-11-03T11:50:26;101143.98;;;12.49;69.52
74790;BME280;63318;52.406;13.416;2022-11-03T11:53:11;101138.85;;;12.48;69.36
74790;BME280;63318;52.406;13.416;2022-11-03T11:55:42;101132.86;;;12.48;69.07
74790;BME280;63318;52.406;13.416;2022-11-03T11:58:25;101129.42;;;12.47;69.44
74790;BME280;63318;52.406;13.416;2022-11-03T12:00:55;101123.13;;;12.46;69.40
74790;BME280;63318;52.406;13.416;2022-11-03T12:03:37;101122.06;;;12.44;69.35
74790;BME280;63318;52.406;13.416;2022-11-03T12:06:07;101118.89;;;12.42;69.39
74790;BME280;63318;52.406;13.416;2022-11-03T12:08:35;101118.17;;;12.42;69.47
74790;BME280;63318;52.406;13.416;2022-11-03T12:11:05;101111.42;;;12.40;69.28
74790;BME280;63318;52.406;13.416;2022-11-03T12:13:46;101105.39;;;12.40;69.13
74790;BME280;63318;52.406;13.416;2022-11-03T12:16:34;101106.45;;;12.38;69.23
74790;BME280;63318;52.406;13.416;2022-11-03T12:22:07;101094.26;;;12.37;69.19
74790;BME280;63318;52.406;13.416;2022-11-03T12:24:47;101093.70;;;12.37;69.31
74790;BME280;63318;52.406;13.416;2022-11-03T12:27:40;101091.64;;;12.38;69.03
74790;BME280;63318;52.406;13.416;2022-11-03T12:30:14;101088.08;;;12.48;69.01
74790;BME280;63318;52.406;13.416;2022-11-03T12:32:42;101088.52;;;12.52;69.24
74790;BME280;63318;52.406;13.416;2022-11-03T12:35:12;101082.83;;;12.57;69.45
74790;BME280;63318;52.406;13.416;2022-11-03T12:37:40;101077.04;;;12.63;69.51
74790;BME280;63318;52.406;13.416;2022-11-03T12:40:12;101071.07;;;12.65;69.58
74790;BME280;63318;52.406;13.416;2022-11-03T12:42:40;101071.52;;;12.66;69.44
74790;BME280;63318;52.406;13.416;2022-11-03T12:45:09;101067.05;;;12.70;69.48
74790;BME280;63318;52.406;13.416;2022-11-03T12:47:37;101063.04;;;12.73;68.70
74790;BME280;63318;52.406;13.416;2022-11-03T12:50:06;101062.30;;;12.74;68.88
74790;BME280;63318;52.406;13.416;2022-11-03T12:52:35;101060.58;;;12.74;68.77
74790;BME280;63318;52.406;13.416;2022-11-03T12:55:03;101057.56;;;12.72;68.42
74790;BME280;63318;52.406;13.416;2022-11-03T12:57:32;101057.29;;;12.72;68.37
74790;BME280;63318;52.406;13.416;2022-11-03T13:00:01;101053.05;;;12.72;68.38
74790;BME280;63318;52.406;13.416;2022-11-03T13:02:29;101050.66;;;12.71;68.42
74790;BME280;63318;52.406;13.416;2022-11-03T13:04:57;101044.81;;;12.70;68.20
74790;BME280;63318;52.406;13.416;2022-11-03T13:07:25;101039.46;;;12.69;68.31
74790;BME280;63318;52.406;13.416;2022-11-03T13:09:53;101042.18;;;12.69;67.95
74790;BME280;63318;52.406;13.416;2022-11-03T13:12:21;101032.05;;;12.70;68.18
74790;BME280;63318;52.406;13.416;2022-11-03T13:14:50;101023.52;;;12.71;68.11